createdAt,value
2023-03-19T00:00:27.233Z,94625.56
2023-03-19T00:02:54.359Z,94626.38
2023-03-19T00:05:21.249Z,94627.09
2023-03-19T00:07:47.858Z,94615.19
2023-03-19T00:10:14.580Z,94622.34
2023-03-19T00:12:41.579Z,94622.41
2023-03-19T00:15:14.007Z,94621.25
2023-03-19T00:17:43.153Z,94625.06
2023-03-19T00:20:11.909Z,94620.50
2023-03-19T00:22:39.746Z,94609.16
2023-03-19T00:25:08.341Z,94614.22
2023-03-19T00:27:38.217Z,94607.09
2023-03-19T00:30:07.157Z,94605.66
2023-03-19T00:32:34.273Z,94610.28
2023-03-19T00:35:02.250Z,94605.03
2023-03-19T00:37:28.901Z,94605.31
2023-03-19T00:39:56.240Z,94604.22
2023-03-19T00:42:22.957Z,94600.56
2023-03-19T00:44:49.581Z,94596.38
2023-03-19T00:47:16.384Z,94596.25
2023-03-19T00:49:43.010Z,94594.88
2023-03-19T00:52:09.694Z,94584.03
2023-03-19T00:54:36.248Z,94581.66
2023-03-19T00:57:03.092Z,94584.31
2023-03-19T00:59:29.691Z,94578.47
2023-03-19T01:01:56.306Z,94573.22
2023-03-19T01:04:23.390Z,94564.97
2023-03-19T01:06:50.478Z,94572.13
2023-03-19T01:09:17.535Z,94569.94
2023-03-19T01:11:44.289Z,94566.94
2023-03-19T01:14:11.755Z,94571.50
2023-03-19T01:16:38.497Z,94565.53
2023-03-19T01:19:06.135Z,94564.19
2023-03-19T01:21:33.392Z,94570.38
2023-03-19T01:23:59.991Z,94568.41
2023-03-19T01:26:27.393Z,94566.00
2023-03-19T01:28:54.553Z,94564.69
2023-03-19T01:31:22.136Z,94558.03
2023-03-19T01:33:48.874Z,94559.13
2023-03-19T01:36:15.583Z,94560.34
2023-03-19T01:38:42.740Z,94561.22
2023-03-19T01:41:09.706Z,94564.91
2023-03-19T01:43:36.743Z,94562.63
2023-03-19T01:46:28.106Z,94575.44
2023-03-19T01:49:00.087Z,94574.00
2023-03-19T01:51:30.177Z,94572.28
2023-03-19T01:54:00.614Z,94585.06
2023-03-19T01:56:35.210Z,94575.41
2023-03-19T01:59:09.644Z,94572.50
2023-03-19T02:01:45.073Z,94573.19
2023-03-19T02:04:13.476Z,94572.53
2023-03-19T02:06:41.536Z,94579.16
2023-03-19T02:09:08.608Z,94567.94
2023-03-19T02:11:36.314Z,94568.16
2023-03-19T02:14:03.476Z,94567.56
2023-03-19T02:16:30.118Z,94571.03
2023-03-19T02:18:57.008Z,94566.19
2023-03-19T02:21:23.643Z,94566.81
2023-03-19T02:24:02.314Z,94564.50
2023-03-19T02:26:30.883Z,94567.75
2023-03-19T02:28:57.525Z,94572.63
2023-03-19T02:31:24.610Z,94570.09
2023-03-19T02:34:03.790Z,94562.50
2023-03-19T02:36:42.406Z,94569.38
2023-03-19T02:39:19.374Z,94577.59
2023-03-19T02:41:47.173Z,94575.75
2023-03-19T02:44:13.812Z,94574.06
2023-03-19T02:46:40.543Z,94580.03
2023-03-19T02:49:07.226Z,94579.25
2023-03-19T02:51:33.918Z,94576.47
2023-03-19T02:54:00.984Z,94576.53
2023-03-19T02:56:27.652Z,94574.94
2023-03-19T02:58:54.316Z,94576.97
2023-03-19T03:01:21.376Z,94581.16
2023-03-19T03:03:48.016Z,94578.88
2023-03-19T03:06:14.597Z,94590.72
2023-03-19T03:08:41.583Z,94587.38
2023-03-19T03:11:08.298Z,94586.94
2023-03-19T03:13:35.028Z,94592.06
2023-03-19T03:16:02.299Z,94593.13
2023-03-19T03:18:29.042Z,94593.31
2023-03-19T03:20:55.729Z,94594.88
2023-03-19T03:23:22.589Z,94599.50
2023-03-19T03:25:51.454Z,94599.28
2023-03-19T03:28:19.225Z,94602.78
2023-03-19T03:30:46.451Z,94593.69
2023-03-19T03:33:13.292Z,94600.03
2023-03-19T03:35:40.022Z,94598.97
2023-03-19T03:38:06.782Z,94600.75
2023-03-19T03:40:34.576Z,94598.88
2023-03-19T03:43:02.316Z,94598.22
2023-03-19T03:45:29.070Z,94603.28
2023-03-19T03:47:55.731Z,94604.94
2023-03-19T03:50:22.528Z,94597.38
2023-03-19T03:52:49.174Z,94606.97
2023-03-19T03:55:17.105Z,94606.91
2023-03-19T03:57:43.867Z,94609.75
2023-03-19T04:00:11.237Z,94608.88
2023-03-19T04:02:37.985Z,94614.22
2023-03-19T04:05:04.948Z,94613.88
2023-03-19T04:07:32.220Z,94608.75
2023-03-19T04:09:59.392Z,94604.72
2023-03-19T04:12:26.321Z,94604.28
2023-03-19T04:14:53.032Z,94593.88
2023-03-19T04:17:19.731Z,94596.63
2023-03-19T04:19:46.502Z,94598.28
2023-03-19T04:22:13.180Z,94593.56
2023-03-19T04:24:39.806Z,94600.75
2023-03-19T04:27:07.310Z,94607.56
2023-03-19T04:29:34.464Z,94606.22
2023-03-19T04:32:01.598Z,94605.66
2023-03-19T04:34:28.236Z,94607.81
2023-03-19T04:36:54.941Z,94605.06
2023-03-19T04:39:21.624Z,94607.59
2023-03-19T04:41:48.260Z,94611.72
2023-03-19T04:44:14.868Z,94613.88
2023-03-19T04:46:42.082Z,94604.28
2023-03-19T04:49:09.270Z,94611.53
2023-03-19T04:51:35.949Z,94613.59
2023-03-19T04:54:02.637Z,94618.00
2023-03-19T04:56:29.296Z,94610.75
2023-03-19T04:58:56.895Z,94612.22
2023-03-19T05:01:24.031Z,94609.19
2023-03-19T05:03:50.924Z,94607.97
2023-03-19T05:06:17.842Z,94613.50
2023-03-19T05:08:44.483Z,94619.53
2023-03-19T05:11:11.487Z,94618.19
2023-03-19T05:13:38.536Z,94621.72
2023-03-19T05:16:05.493Z,94617.78
2023-03-19T05:18:33.607Z,94622.72
2023-03-19T05:21:00.337Z,94621.72
2023-03-19T05:23:26.974Z,94621.13
2023-03-19T05:25:53.587Z,94617.97
2023-03-19T05:28:20.270Z,94615.78
2023-03-19T05:30:46.919Z,94620.16
2023-03-19T05:33:13.684Z,94617.41
2023-03-19T05:35:40.629Z,94620.53
2023-03-19T05:38:08.187Z,94614.06
2023-03-19T05:40:36.171Z,94614.22
2023-03-19T05:43:02.924Z,94607.38
2023-03-19T05:45:29.940Z,94615.13
2023-03-19T05:47:56.851Z,94617.75
2023-03-19T05:50:23.507Z,94617.00
2023-03-19T05:52:54.346Z,94624.16
2023-03-19T05:55:21.903Z,94625.44
2023-03-19T05:57:51.468Z,94623.41
2023-03-19T06:00:18.839Z,94628.44
2023-03-19T06:02:46.308Z,94624.25
2023-03-19T06:05:24.964Z,94623.28
2023-03-19T06:07:51.771Z,94619.25
2023-03-19T06:10:22.217Z,94623.66
2023-03-19T06:12:52.312Z,94620.47
2023-03-19T06:15:19.204Z,94629.19
2023-03-19T06:17:46.021Z,94627.59
2023-03-19T06:20:13.136Z,94639.72
2023-03-19T06:22:40.575Z,94628.97
2023-03-19T06:25:07.828Z,94631.25
2023-03-19T06:27:34.426Z,94631.72
2023-03-19T06:30:01.057Z,94628.84
2023-03-19T06:32:27.705Z,94635.13
2023-03-19T06:34:56.247Z,94635.00
2023-03-19T06:37:23.078Z,94639.97
2023-03-19T06:39:49.864Z,94642.94
2023-03-19T06:42:17.139Z,94643.75
2023-03-19T06:44:46.160Z,94644.38
2023-03-19T06:47:12.969Z,94647.44
2023-03-19T06:49:39.751Z,94649.94
2023-03-19T06:52:06.890Z,94662.69
2023-03-19T06:54:33.843Z,94665.81
2023-03-19T06:57:00.497Z,94662.56
2023-03-19T06:59:27.129Z,94668.31
2023-03-19T07:01:53.926Z,94660.63
2023-03-19T07:04:20.628Z,94669.59
2023-03-19T07:06:47.354Z,94658.78
2023-03-19T07:09:14.376Z,94661.13
2023-03-19T07:11:43.687Z,94660.97
2023-03-19T07:14:10.883Z,94662.50
2023-03-19T07:16:40.821Z,94657.50
2023-03-19T07:19:07.559Z,94656.59
2023-03-19T07:21:35.010Z,94653.81
2023-03-19T07:24:02.660Z,94653.81
2023-03-19T07:26:31.058Z,94665.31
2023-03-19T07:28:57.937Z,94652.78
2023-03-19T07:31:24.735Z,94648.44
2023-03-19T07:33:51.411Z,94660.13
2023-03-19T07:36:18.081Z,94648.09
2023-03-19T07:38:44.729Z,94645.13
2023-03-19T07:41:11.864Z,94653.03
2023-03-19T07:43:38.484Z,94659.56
2023-03-19T07:46:06.343Z,94653.19
2023-03-19T07:48:33.374Z,94652.63
2023-03-19T07:51:00.075Z,94648.94
2023-03-19T07:53:27.282Z,94659.50
2023-03-19T07:55:53.952Z,94659.56
2023-03-19T07:58:20.869Z,94652.97
2023-03-19T08:00:47.601Z,94650.28
2023-03-19T08:03:14.524Z,94648.41
2023-03-19T08:05:41.960Z,94650.50
2023-03-19T08:08:08.853Z,94642.19
2023-03-19T08:10:37.986Z,94644.53
2023-03-19T08:13:05.406Z,94648.31
2023-03-19T08:15:32.121Z,94657.59
2023-03-19T08:18:04.234Z,94645.50
2023-03-19T08:20:32.073Z,94651.44
2023-03-19T08:22:58.839Z,94658.94
2023-03-19T08:25:26.329Z,94655.34
2023-03-19T08:27:53.469Z,94650.31
2023-03-19T08:30:20.057Z,94655.50
2023-03-19T08:32:46.888Z,94658.78
2023-03-19T08:35:14.213Z,94653.47
2023-03-19T08:37:41.026Z,94648.59
2023-03-19T08:40:08.777Z,94647.31
2023-03-19T08:42:35.722Z,94642.19
2023-03-19T08:45:02.401Z,94632.44
2023-03-19T08:47:29.001Z,94628.75
2023-03-19T08:49:55.986Z,94634.88
2023-03-19T08:52:22.623Z,94634.81
2023-03-19T08:54:49.223Z,94639.84
2023-03-19T08:57:15.875Z,94617.75
2023-03-19T08:59:42.795Z,94633.06
2023-03-19T09:02:12.535Z,94630.41
2023-03-19T09:04:45.761Z,94619.81
2023-03-19T09:07:15.718Z,94617.13
2023-03-19T09:09:43.812Z,94618.16
2023-03-19T09:12:13.048Z,94619.38
2023-03-19T09:14:40.210Z,94609.09
2023-03-19T09:17:07.904Z,94613.16
2023-03-19T09:19:35.089Z,94612.84
2023-03-19T09:22:02.216Z,94608.97
2023-03-19T09:24:28.840Z,94603.25
2023-03-19T09:26:55.654Z,94598.25
2023-03-19T09:29:22.369Z,94611.38
2023-03-19T09:31:49.040Z,94605.53
2023-03-19T09:34:16.532Z,94600.16
2023-03-19T09:36:43.224Z,94590.88
2023-03-19T09:39:09.964Z,94597.94
2023-03-19T09:42:03.615Z,94595.72
2023-03-19T09:44:34.035Z,94596.53
2023-03-19T09:47:26.189Z,94600.72
2023-03-19T09:49:57.776Z,94584.28
2023-03-19T09:52:47.223Z,94581.75
2023-03-19T09:55:29.116Z,94589.47
2023-03-19T09:57:58.744Z,94576.41
2023-03-19T10:00:32.772Z,94582.69
2023-03-19T10:03:12.460Z,94588.63
2023-03-19T10:05:59.295Z,94581.34
2023-03-19T10:08:46.844Z,94576.25
2023-03-19T10:11:34.838Z,94573.34
2023-03-19T10:14:56.915Z,94575.03
2023-03-19T10:17:47.553Z,94563.44
2023-03-19T10:20:35.682Z,94563.09
2023-03-19T10:23:26.521Z,94557.09
2023-03-19T10:25:57.106Z,94553.28
2023-03-19T10:28:26.676Z,94549.06
2023-03-19T10:31:05.677Z,94546.78
2023-03-19T10:33:46.096Z,94539.59
2023-03-19T10:36:16.101Z,94533.41
2023-03-19T10:38:44.454Z,94527.41
2023-03-19T10:41:32.130Z,94527.88
2023-03-19T10:44:06.234Z,94517.25
2023-03-19T10:46:42.091Z,94519.25
2023-03-19T10:49:13.262Z,94513.03
2023-03-19T10:51:40.351Z,94496.53
2023-03-19T10:54:23.277Z,94498.97
2023-03-19T10:56:51.502Z,94491.84
2023-03-19T10:59:26.976Z,94488.84
2023-03-19T11:02:16.677Z,94482.78
2023-03-19T11:04:43.274Z,94480.09
2023-03-19T11:07:17.714Z,94475.50
2023-03-19T11:09:51.650Z,94473.16
2023-03-19T11:12:27.156Z,94476.06
2023-03-19T11:14:57.821Z,94459.88
2023-03-19T11:17:39.731Z,94470.97
2023-03-19T11:20:15.912Z,94462.47
2023-03-19T11:22:42.957Z,94458.94
2023-03-19T11:25:23.416Z,94452.94
2023-03-19T11:28:06.842Z,94451.72
2023-03-19T11:30:48.694Z,94452.00
2023-03-19T11:33:33.596Z,94432.47
2023-03-19T11:36:13.363Z,94438.31
2023-03-19T11:38:52.133Z,94432.13
2023-03-19T11:41:41.036Z,94432.34
2023-03-19T11:44:20.742Z,94415.16
2023-03-19T11:47:26.503Z,94415.72
2023-03-19T11:50:09.625Z,94417.47
2023-03-19T11:52:53.352Z,94414.31
2023-03-19T11:55:28.204Z,94404.03
2023-03-19T11:58:13.024Z,94409.38
2023-03-19T12:00:42.422Z,94405.41
2023-03-19T12:03:17.834Z,94399.44
2023-03-19T12:06:35.099Z,94391.78
2023-03-19T12:09:24.179Z,94392.56
2023-03-19T12:12:05.917Z,94380.06
2023-03-19T12:15:06.626Z,94381.38
2023-03-19T12:17:43.966Z,94385.44
2023-03-19T12:20:29.672Z,94378.84
2023-03-19T12:23:00.403Z,94382.81
2023-03-19T12:25:40.403Z,94382.78
2023-03-19T12:28:25.061Z,94368.41
2023-03-19T12:31:13.157Z,94371.13
2023-03-19T12:33:48.929Z,94365.53
2023-03-19T12:36:23.705Z,94363.91
2023-03-19T12:38:55.105Z,94361.00
2023-03-19T12:41:29.637Z,94356.44
2023-03-19T12:44:06.360Z,94357.81
2023-03-19T12:46:49.031Z,94358.31
2023-03-19T12:49:28.290Z,94354.72
2023-03-19T12:52:04.150Z,94361.56
2023-03-19T12:54:39.475Z,94347.28
2023-03-19T12:57:18.231Z,94350.59
2023-03-19T12:59:58.679Z,94346.22
2023-03-19T13:02:34.619Z,94348.72
2023-03-19T13:05:26.248Z,94343.19
2023-03-19T13:08:14.048Z,94339.06
2023-03-19T13:10:40.880Z,94336.03
2023-03-19T13:13:25.731Z,94336.84
2023-03-19T13:15:58.434Z,94338.38
2023-03-19T13:18:39.055Z,94338.75
2023-03-19T13:21:30.085Z,94323.34
2023-03-19T13:24:21.906Z,94321.69
2023-03-19T13:26:54.632Z,94319.03
2023-03-19T13:29:27.070Z,94313.91
2023-03-19T13:32:01.564Z,94316.81
2023-03-19T13:34:33.969Z,94314.41
2023-03-19T13:37:18.560Z,94319.63
2023-03-19T13:39:48.488Z,94314.78
2023-03-19T13:42:44.704Z,94315.41
2023-03-19T13:45:20.393Z,94304.41
2023-03-19T13:47:51.031Z,94305.13
2023-03-19T13:50:25.829Z,94303.31
2023-03-19T13:52:57.097Z,94290.19
2023-03-19T13:55:30.117Z,94293.84
2023-03-19T13:58:38.019Z,94292.94
2023-03-19T14:01:06.925Z,94292.38
2023-03-19T14:03:37.262Z,94287.72
2023-03-19T14:06:04.539Z,94290.88
2023-03-19T14:08:47.242Z,94279.63
2023-03-19T14:11:23.897Z,94286.56
2023-03-19T14:13:53.114Z,94287.81
2023-03-19T14:16:26.849Z,94277.09
2023-03-19T14:18:58.366Z,94276.72
2023-03-19T14:21:39.965Z,94274.16
2023-03-19T14:27:32.977Z,94272.41
2023-03-19T14:30:10.113Z,94269.91
2023-03-19T14:32:42.364Z,94270.41
2023-03-19T14:35:16.301Z,94273.81
2023-03-19T14:37:52.288Z,94269.00
2023-03-19T14:40:51.324Z,94275.53
2023-03-19T14:43:34.725Z,94270.91
2023-03-19T14:46:04.139Z,94270.16
2023-03-19T14:48:52.279Z,94267.03
2023-03-19T14:51:39.713Z,94267.78
2023-03-19T14:54:35.355Z,94273.50
2023-03-19T14:57:15.924Z,94264.97
2023-03-19T14:59:43.111Z,94264.59
2023-03-19T15:02:40.069Z,94265.97
2023-03-19T15:05:18.873Z,94264.94
2023-03-19T15:07:47.996Z,94265.75
2023-03-19T15:10:24.339Z,94266.06
2023-03-19T15:13:09.378Z,94259.94
2023-03-19T15:16:13.203Z,94271.41
2023-03-19T15:18:39.898Z,94269.97
2023-03-19T15:21:06.836Z,94266.91
2023-03-19T15:23:33.934Z,94265.00
2023-03-19T15:26:03.379Z,94272.28
2023-03-19T15:28:44.774Z,94273.78
2023-03-19T15:31:30.021Z,94274.56
2023-03-19T15:33:58.550Z,94278.81
2023-03-19T15:36:30.917Z,94276.78
2023-03-19T15:39:04.898Z,94270.56
2023-03-19T15:41:36.767Z,94273.28
2023-03-19T15:44:08.381Z,94273.25
2023-03-19T15:46:39.208Z,94281.59
2023-03-19T15:49:20.793Z,94275.41
2023-03-19T15:51:51.741Z,94276.47
2023-03-19T15:54:20.195Z,94285.72
2023-03-19T15:56:51.237Z,94279.78
2023-03-19T15:59:21.403Z,94277.81
2023-03-19T16:01:48.718Z,94282.41
2023-03-19T16:04:22.601Z,94289.91
2023-03-19T16:06:50.870Z,94287.41
2023-03-19T16:09:25.743Z,94291.50
2023-03-19T16:11:53.853Z,94287.22
2023-03-19T16:14:39.735Z,94293.16
2023-03-19T16:17:13.809Z,94295.00
2023-03-19T16:20:02.425Z,94297.03
2023-03-19T16:22:32.834Z,94290.38
2023-03-19T16:25:02.037Z,94297.66
2023-03-19T16:27:39.595Z,94297.94
2023-03-19T16:30:23.109Z,94298.16
2023-03-19T16:33:06.928Z,94302.56
2023-03-19T16:35:36.709Z,94297.97
2023-03-19T16:38:22.697Z,94299.84
2023-03-19T16:41:10.026Z,94301.03
2023-03-19T16:43:37.294Z,94307.78
2023-03-19T16:46:12.505Z,94301.34
2023-03-19T16:48:41.431Z,94309.25
2023-03-19T16:51:18.419Z,94300.16
2023-03-19T16:53:46.318Z,94308.81
2023-03-19T16:56:15.564Z,94315.13
2023-03-19T16:58:46.044Z,94313.03
2023-03-19T17:01:19.403Z,94319.03
2023-03-19T17:03:47.200Z,94323.28
2023-03-19T17:06:14.858Z,94319.31
2023-03-19T17:08:42.329Z,94318.09
2023-03-19T17:11:25.434Z,94322.97
2023-03-19T17:13:53.537Z,94326.56
2023-03-19T17:16:20.338Z,94334.78
2023-03-19T17:18:47.889Z,94334.66
2023-03-19T17:21:27.476Z,94333.66
2023-03-19T17:23:55.240Z,94329.13
2023-03-19T17:26:28.180Z,94330.06
2023-03-19T17:28:56.389Z,94336.06
2023-03-19T17:31:31.867Z,94333.97
2023-03-19T17:34:10.509Z,94334.78
2023-03-19T17:36:37.302Z,94336.44
2023-03-19T17:39:06.011Z,94340.78
2023-03-19T17:41:35.774Z,94337.06
2023-03-19T17:44:04.990Z,94338.88
2023-03-19T17:46:40.741Z,94339.69
2023-03-19T17:49:18.374Z,94341.50
2023-03-19T17:51:45.230Z,94350.53
2023-03-19T17:54:13.014Z,94349.44
2023-03-19T17:56:41.798Z,94348.66
2023-03-19T17:59:08.521Z,94346.16
2023-03-19T18:01:35.636Z,94350.00
2023-03-19T18:04:02.947Z,94346.31
2023-03-19T18:06:35.577Z,94346.59
2023-03-19T18:09:02.274Z,94354.00
2023-03-19T18:11:28.998Z,94356.59
2023-03-19T18:13:55.616Z,94354.69
2023-03-19T18:16:25.343Z,94352.88
2023-03-19T18:18:53.097Z,94351.00
2023-03-19T18:21:19.876Z,94355.13
2023-03-19T18:23:47.009Z,94355.47
2023-03-19T18:26:14.060Z,94360.91
2023-03-19T18:28:41.896Z,94362.34
2023-03-19T18:31:20.420Z,94368.94
2023-03-19T18:33:53.934Z,94366.69
2023-03-19T18:36:25.725Z,94371.88
2023-03-19T18:38:55.099Z,94378.78
2023-03-19T18:41:23.128Z,94379.38
2023-03-19T18:43:49.959Z,94382.38
2023-03-19T18:46:24.111Z,94377.81
2023-03-19T18:49:00.698Z,94384.25
2023-03-19T18:51:28.415Z,94387.03
2023-03-19T18:53:56.053Z,94384.06
2023-03-19T18:56:29.747Z,94382.47
2023-03-19T18:58:58.670Z,94388.41
2023-03-19T19:01:26.946Z,94382.56
2023-03-19T19:03:54.613Z,94384.59
2023-03-19T19:06:46.049Z,94393.16
2023-03-19T19:09:14.190Z,94401.88
2023-03-19T19:11:44.731Z,94394.75
2023-03-19T19:14:21.977Z,94396.78
2023-03-19T19:16:49.280Z,94397.56
2023-03-19T19:19:20.191Z,94406.19
2023-03-19T19:21:47.053Z,94412.22
2023-03-19T19:24:15.050Z,94408.97
2023-03-19T19:26:44.198Z,94410.28
2023-03-19T19:29:23.656Z,94414.16
2023-03-19T19:31:50.321Z,94419.44
2023-03-19T19:34:17.670Z,94419.25
2023-03-19T19:36:44.278Z,94422.38
2023-03-19T19:39:11.227Z,94413.19
2023-03-19T19:41:39.416Z,94417.22
2023-03-19T19:44:06.426Z,94421.94
2023-03-19T19:46:33.365Z,94417.81
2023-03-19T19:49:00.444Z,94408.59
2023-03-19T19:51:29.595Z,94415.13
2023-03-19T19:53:56.224Z,94411.50
2023-03-19T19:56:25.192Z,94414.72
2023-03-19T19:58:54.257Z,94416.63
2023-03-19T20:01:23.546Z,94413.06
2023-03-19T20:03:51.971Z,94420.19
2023-03-19T20:06:19.198Z,94419.78
2023-03-19T20:08:49.295Z,94417.97
2023-03-19T20:11:21.686Z,94424.59
2023-03-19T20:13:54.286Z,94422.13
2023-03-19T20:16:23.121Z,94421.53
2023-03-19T20:18:53.608Z,94427.47
2023-03-19T20:21:21.197Z,94428.81
2023-03-19T20:23:49.948Z,94440.63
2023-03-19T20:26:20.517Z,94447.53
2023-03-19T20:28:48.088Z,94441.88
2023-03-19T20:31:24.920Z,94443.22
2023-03-19T20:33:51.616Z,94446.44
2023-03-19T20:36:19.615Z,94448.44
2023-03-19T20:38:46.642Z,94451.44
2023-03-19T20:41:22.374Z,94454.78
2023-03-19T20:43:50.554Z,94458.34
2023-03-19T20:46:20.418Z,94451.59
2023-03-19T20:48:48.070Z,94454.78
2023-03-19T20:51:24.817Z,94461.94
2023-03-19T20:53:52.901Z,94463.59
2023-03-19T20:56:24.492Z,94466.38
2023-03-19T20:58:51.577Z,94465.38
2023-03-19T21:01:19.506Z,94464.88
2023-03-19T21:03:46.298Z,94471.16
2023-03-19T21:06:18.059Z,94470.03
2023-03-19T21:08:48.119Z,94467.81
2023-03-19T21:11:17.879Z,94455.16
2023-03-19T21:13:48.898Z,94459.13
2023-03-19T21:16:20.930Z,94466.38
2023-03-19T21:18:48.012Z,94460.91
2023-03-19T21:21:16.496Z,94462.03
2023-03-19T21:23:55.253Z,94455.16
2023-03-19T21:26:24.817Z,94460.91
2023-03-19T21:29:00.473Z,94453.91
2023-03-19T21:31:27.485Z,94462.28
2023-03-19T21:33:56.470Z,94460.91
2023-03-19T21:36:24.532Z,94457.25
2023-03-19T21:38:52.536Z,94466.50
2023-03-19T21:41:24.953Z,94450.34
2023-03-19T21:44:16.087Z,94452.16
2023-03-19T21:46:46.680Z,94453.47
2023-03-19T21:49:14.015Z,94453.16
2023-03-19T21:51:42.765Z,94453.47
2023-03-19T21:54:09.649Z,94457.72
2023-03-19T21:56:39.832Z,94466.63
2023-03-19T21:59:18.989Z,94462.25
2023-03-19T22:01:46.606Z,94465.81
2023-03-19T22:04:13.324Z,94461.59
2023-03-19T22:06:40.435Z,94466.50
2023-03-19T22:09:07.426Z,94461.03
2023-03-19T22:11:37.150Z,94461.72
2023-03-19T22:14:06.979Z,94463.00
2023-03-19T22:16:34.067Z,94450.75
2023-03-19T22:19:02.326Z,94453.31
2023-03-19T22:21:32.990Z,94458.66
2023-03-19T22:23:59.646Z,94457.88
2023-03-19T22:26:35.726Z,94455.09
2023-03-19T22:29:06.769Z,94455.97
2023-03-19T22:31:34.756Z,94454.53
2023-03-19T22:34:02.228Z,94454.19
2023-03-19T22:36:29.042Z,94461.09
2023-03-19T22:38:55.681Z,94456.47
2023-03-19T22:41:28.673Z,94454.56
2023-03-19T22:43:56.928Z,94446.16
2023-03-19T22:46:25.034Z,94457.13
2023-03-19T22:48:52.293Z,94448.34
2023-03-19T22:51:21.655Z,94452.91
2023-03-19T22:53:48.717Z,94449.91
2023-03-19T22:56:16.154Z,94445.91
2023-03-19T22:58:43.085Z,94456.03
2023-03-19T23:01:44.625Z,94452.25
2023-03-19T23:04:23.185Z,94449.72
2023-03-19T23:06:51.182Z,94453.88
2023-03-19T23:09:24.253Z,94453.66
2023-03-19T23:11:51.647Z,94460.34
2023-03-19T23:14:29.158Z,94454.75
2023-03-19T23:16:59.793Z,94455.69
2023-03-19T23:19:38.491Z,94455.72
2023-03-19T23:22:07.525Z,94453.75
2023-03-19T23:24:34.814Z,94448.94
2023-03-19T23:27:02.501Z,94456.69
2023-03-19T23:29:35.500Z,94450.06
2023-03-19T23:32:03.438Z,94452.84
2023-03-19T23:34:30.405Z,94448.94
2023-03-19T23:36:58.123Z,94453.38
2023-03-19T23:39:25.622Z,94443.38
2023-03-19T23:41:56.170Z,94446.69
2023-03-19T23:44:23.504Z,94444.69
2023-03-19T23:46:51.629Z,94444.19
2023-03-19T23:49:28.855Z,94449.91
2023-03-19T23:51:55.833Z,94444.19
2023-03-19T23:54:34.601Z,94440.94
2023-03-19T23:57:05.635Z,94433.06
2023-03-19T23:59:38.197Z,94434.03
